Racecast

Jackson Baker

Colorado Mesa (CO) · Jr · CO D3A3A · Compare head to head

Athlete rating 107.4 2026 TF season
Best race 128.1 TF
Races 76
Seasons 9 2018 — 2026

RankedNation #8158·NCAA DII #2005·SOUTH CENTRAL #685·RMAC #208·CO #214·Team #29 ?

Rating scale ?
Speed rating — all races

Cross Country

XC speed rating

2025 XC 105.8

Colorado Mesa (CO) · Grade Jr

Date Meet Event Result Place Rating Difficulty PR/SR Flags
2025-10-11 Lewis University 8000m 27:02.68 286th · 8th on team 105.3 +0.015 SR CSR
2025-09-20 Wash Park 8000m 27:03.8 57th · 3rd on team 106.9 +0.024 ★CR SR CSR RSR
2025-09-05 Colorado Mesa University 6000m 20:05.9 21st · 4th on team 105.0 +0.021 ★PR ★CR SR CSR RSR

2024 XC 109.5

Colorado Mesa (CO) · Grade So

Date Meet Event Result Place Rating Difficulty PR/SR Flags
2024-11-09 Washington Park 10000m 34:26.5 85th · 4th on team 112.4 +0.077 ★PR ★CR SR CSR RSR
2024-10-26 N.M. Highlands Gene Torres Golf Course 8000m 26:09.2 59th · 4th on team 110.5 +0.032 ★CR CSR RSR
2024-10-12 Lewis University Cross Country Course 7998m 26:08 216th · 5th on team 108.7 +0.015 ★PR ★CR SR CSR RSR
2024-10-12 Lewis University 8000m 26:03.36 216th · 5th on team 110.1 +0.015 ★PR ★CR SR CSR RSR
2024-09-21 Washington Park 8000m 27:20.3 79th · 9th on team 106.7 +0.042 ★CR SR CSR
2024-09-14 Van Tuyl Trail System 8000m 27:34.7 17th · 3rd on team 108.3 +0.067 SR CSR RSR

2023 XC 106.1

Colorado Mesa (CO) · Grade Fr

Date Meet Event Result Place Rating Difficulty PR/SR Flags
2023-10-21 Washington Park 8000m 28:41.5 109th · 9th on team 102.9 +0.042 CR CSR
2023-10-07 Lewis University 8000m 27:21.4 265th · 10th on team 104.4 +0.015 CR CSR
2023-09-16 Van Tuyl Trail System 8000m 26:56 26th · 4th on team 111.1 +0.067 PR ★CR SR CSR RSR

2021 XC 124.7

UNA CO (CO) · Grade 12

Date Meet Event Result Place Rating Difficulty PR/SR Flags
2021-11-20 Shalimar Country Club 5000m 17:05.8 37th · 4th on team 122.9 +0.005 ★PR ★CR SR CSR
2021-10-30 Norris Penrose Event Center 5000m 17:28.2 25th · 1st on team 127.8 +0.067 ★CR R CSR RSR
2021-10-22 VIX Ranch Park 5000m 17:22.7 2nd · 1st on team 124.6 +0.039 ★CR CSR
2021-10-15 Monte Vista Golf Course 5000m 17:41 1st · 1st on team 123.3 +0.046 ★CR CSR
2021-10-02 Salida High School 5000m 18:19.8 3rd · 1st on team 123.4 +0.092 ★CR CSR
2021-09-25 Crested Butte Area Roads 5000m 17:20 3rd · 1st on team 126.4 +0.052 ★CR R CSR RSR
2021-09-11 Cattails Golf Course 5000m 17:07.7 14th · 1st on team 124.2 +0.012 PR ★CR SR CSR RSR

2020 XC 122.1

Gunnison (CO) · Grade 11

Date Meet Event Result Place Rating Difficulty PR/SR Flags
2020-10-09 Hillcrest Golf Club 5000m 17:24 9th · 2nd on team 125.7 +0.040 PR ★CR R SR CSR RSR
2020-09-26 Salida High School 5000m 19:18.9 13th · 4th on team 118.7 +0.092 CR CSR
2020-09-19 Gunnison Community School 5000m 17:54 4th · 2nd on team 121.8 +0.043 ★CR SR CSR RSR

2019 XC 115.9

UNA CO (CO) · Grade 10

Date Meet Event Result Place Rating Difficulty PR/SR Flags
2019-11-23 Grande Sports Complex 5000m 17:35.2 140th · 24th on team 117.7 +0.004 ★CR CSR
2019-10-26 Norris Penrose Event Center 5000m 19:04.4 99th · 3rd on team 116.5 +0.067 CSR
2019-10-18 Crown Mountain Park 5000m 17:29.3 9th · 3rd on team 122.5 +0.038 PR ★CR R SR CSR RSR
2019-09-28 Salida High School 5000m 19:49.4 28th · 3rd on team 113.2 +0.092 CR CSR RSR
2019-09-07 Cattails Golf Course 5000m 19:05.2 103rd · 4th on team 109.6 +0.012 CR SR CSR RSR

2018 XC 109.1

Gunnison (CO) · Grade 9

Date Meet Event Result Place Rating Difficulty PR/SR Flags
2018-10-27 Norris Penrose Event Center 5000m 18:55.9 117th · 6th on team 117.1 +0.067 PR CR R SR CSR RSR
2018-10-18 Aspen High School 4345m 18:53.7 31st · 6th on team 97.3 ★PR ★CR SR CSR
2018-10-12 Monte Vista Golf Course 5000m 19:25.9 22nd · 6th on team 111.6 +0.046 PR CR R SR CSR RSR
2018-09-18 Riverside Park Road 5000m 20:49.6 21st · 8th on team 110.5 +0.103 PR ★CR R SR CSR RSR

Track & Field

TF speed rating

2026 TF 107.1

Colorado Mesa (CO) · Grade Jr

Date Meet Event Result Place Rating Difficulty PR/SR Flags
2026-05-01 Western Slope Conversion Classic 800m 1:58.8 5th · 4th on team 109.9 -0.015 ★PR SR RSR
2026-04-11 Kit Mayer Classic 1500m 4:14.2 26th · 3rd on team 106.6 -0.006
2026-04-03 High Desert Dental Maverick Invite 800m 2:01.52 20th · 9th on team 107.5 -0.015 PR SR RSR
2026-04-03 High Desert Dental Maverick Invite 5000m 15:57.96 26th · 4th on team 105.4 -0.015 SR
2026-03-19 Maverick Early Bird Open 800m 2:02.1 12th · 6th on team 106.9 -0.015 PR SR RSR
2026-03-19 Maverick Early Bird Open 1500m 4:11.97 17th · 7th on team 106.6 -0.015 SR
2026-01-24 Big Red Machine Open 3000m 9:19.89 3rd · 1st on team 106.9 +0.003 SR RSR

2025 TF 107.6

Colorado Mesa (CO) · Grade So

Date Meet Event Result Place Rating Difficulty PR/SR Flags
2025-04-27 RMAC Outdoor Championships 10-km 32:26.53 23rd · 1st on team 109.3 -0.006 ★PR SR
2025-04-11 Kit Mayer Memorial Classic 10-km 32:30.31 11th · 1st on team 110.2 -0.006 PR SR RSR
2025-04-03 Maverick Invitiational 5000m 15:21.51 11th · 2nd on team 108.4 -0.015
2025-03-21 Dr Dan Caprioglio Early Bird 1500m 4:11.34 29th · 1st on team 107.4 -0.006 ★PR SR
2025-03-21 Dr Dan Caprioglio Early Bird 800m 2:05.92 27th · 6th on team 104.2 -0.006 PR SR
2025-02-14 Ichabod Invite 5000m 15:08.26 8th · 1st on team 108.5 -0.037 ★PR SR
2025-02-14 Ichabod Invite 1mile 4:25.62 21st · 2nd on team 107.2 -0.037 ★PR SR
2025-01-31 Meet results → Men's 3000 Meters 8:51.23 33rd · 2nd on team 107.2 ★PR SR
2025-01-25 Nevada Invitational & Multi 3000m 8:59.16 3rd · 1st on team 109.2 -0.021 ★PR SR RSR
2024-12-07 Mountaineer Open 2024 5000m 16:34.77 5th · 2nd on team 104.0 +0.003 SR RSR

2024 TF 106.0

Colorado Mesa (CO) · Grade Fr

Date Meet Event Result Place Rating Difficulty PR/SR Flags
2024-04-08 Maverick Invitiational 5000m 15:33.45 3rd · 3rd on team 107.5 -0.015 PR SR RSR
2024-02-16 Meet results → Men's 5000 Meters 16:09.01 6th · 4th on team 102.8 ★PR SR
2024-02-03 Big Red Machine Open 5000m 16:06.68 5th · 1st on team 107.0 +0.003 PR SR RSR
2024-02-01 Western Colorado Open 5000m 16:09.01 6th · 4th on team 106.7 +0.003 PR SR RSR

2022 TF 119.8

Gunnison (CO) · Grade 12

Date Meet Event Result Place Rating Difficulty PR/SR Flags
2022-05-21 CHSSA State Championships 3200m 10:20.86 11th · 1st on team 119.6 -0.011
2022-05-13 Friday Night Lights Cyclone Invitational 3200m 9:51.95 2nd · 1st on team 128.1 -0.011 ★PR ★R SR RSR
2022-05-07 Multi-League Championship 3200m 10:13.15 1st · 1st on team 123.5 -0.001 PR SR RSR
2022-04-30 District 2 Invitational 3200m 10:19.89 2nd · 1st on team 122.6 +0.000 PR SR RSR
2022-04-14 High Altitude Challenge 1600m 5:01.27 4th · 1st on team 118.7 +0.020
2022-04-14 High Altitude Challenge 800m 2:17.06 5th · 1st on team 117.1 +0.020
2022-04-02 Hornet Track and Field Invitational 800m 2:12.74 11th · 1st on team 116.9 -0.011 PR SR
2022-04-02 Hornet Track and Field Invitational 1600m 4:50.67 7th · 1st on team 119.1 -0.011 ★PR SR
2022-03-26 North Fork Invitational 800m 2:13.67 3rd · 1st on team 118.1 +0.006 SR RSR
2022-03-26 North Fork Invitational 1600m 4:51.37 1st · 1st on team 121.0 +0.006 PR SR RSR
2022-01-15 Let's Get REAL Western Open 1mile 5:15.76 1st · 1st on team 113.3 +0.003 SR RSR

2021 TF 120.1

Gunnison (CO) · Grade 11

Date Meet Event Result Place Rating Difficulty PR/SR Flags
2021-06-26 Colorado State Track and Field Championships 3200m 10:26.24 11th · 2nd on team 120.7 -0.011
2021-06-18 Joe Shields Invitational 3200m 10:22.96 1st · 1st on team 126.2 +0.026 PR R SR RSR
2021-05-28 Petrelli and Hunt Invitational 3200m 10:41.69 2nd · 1st on team 118.9 -0.004 PR SR RSR
2021-05-21 Coal Ridge Invitational 800m 2:13.19 11th · 2nd on team 118.2 -0.004 PR SR
2021-05-14 High Altitude Challenge 800m 2:16.01 11th · 1st on team 118.5 +0.020 PR SR RSR
2021-05-14 High Altitude Challenge 1600m 5:05.21 9th · 1st on team 117.8 +0.020 PR SR

2020 TF 114.4

Unattached (TX) · Grade 10

Date Meet Event Result Place Rating Difficulty PR/SR Flags
2020-02-23 Western Colorado University HS Indoor Open 800m 2:24.26 9th · 4th on team 111.5 +0.003 PR SR
2020-02-23 Western Colorado University HS Indoor Open 1mile 5:15.52 8th · 2nd on team 114.7 +0.003
2020-02-01 Air Force HS Indoor Open 2miles 11:11.07 15th · 7th on team 114.8 -0.004 ★PR SR RSR
2020-02-01 Air Force HS Indoor Open 1mile 5:07.27 60th · 12th on team 116.5 -0.004 PR SR RSR

2019 TF 110.0

Gunnison (CO) · Grade 9

Date Meet Event Result Place Rating Difficulty PR/SR Flags
2019-04-24 Delta Panther JV Meet 1600m 5:24.75 6th · 2nd on team 109.3 +0.003 PR SR
2019-04-19 Coal Ridge Invitational 400m 1:05.08 48th · 3rd on team -0.004 ★PR SR
2019-03-16 Delta Panther Invitational 3200m 11:31.93 4th · 2nd on team 110.7 +0.003 PR SR RSR